Levante — 9HOB7 — position and weather

sailwx.info

Track history (hours):
 
Tides and Currents Weather Stations Pressure Air Temp Water Temp Dewpoint Dewpoint Depression Visibility Wind Speed Wind Dir Waves Ship Positions

Levante

Last reported at 2015-Jan-27 04:30 UTC. Time now 2015-Jan-27 19:00 UTC.
Position N 43°20' W 003°02'.

Length 188.3 m; beam 28 m; draft 10.1 m.

Type: Ship. MMSI: 215440000.

Date/timePositionNaut miles runAvg speedWind from/ knotsBaromVisibWave heightAir tempDewpointWater temp
2015-Jan-27 04:30N 43°20' W 003°02'0 0.0
2015-Jan-27 03:30N 43°20' W 003°02'0 0.0
2015-Jan-27 02:34N 43°20' W 003°02'0 0.0
2015-Jan-27 01:34N 43°20' W 003°02'0 0.0
2015-Jan-27 00:30N 43°20' W 003°02'0 0.0
2015-Jan-26 23:30N 43°20' W 003°02'0 0.0
2015-Jan-26 22:30N 43°20' W 003°02'0 0.0
2015-Jan-26 21:30N 43°20' W 003°02'0 0.0
2015-Jan-26 20:30N 43°20' W 003°02'0 0.0
2015-Jan-26 19:30N 43°20' W 003°02'0 0.0
2015-Jan-26 18:34N 43°20' W 003°02'0 0.0
2015-Jan-26 17:34N 43°20' W 003°02'0 0.0
2015-Jan-26 16:30N 43°20' W 003°02'0 0.0
2015-Jan-26 15:30N 43°20' W 003°02'0 0.0
2015-Jan-26 14:30N 43°20' W 003°02'0 0.0
2015-Jan-26 13:30N 43°20' W 003°02'0 0.0
2015-Jan-26 12:30N 43°20' W 003°02'93 1.8
2015-Jan-24 09:30N 43°44' W 005°06'1212.4
2015-Jan-24 08:31N 43°45' W 005°23'1212.1
2015-Jan-24 07:33N 43°47' W 005°39'1212.1
2015-Jan-24 06:32N 43°48' W 005°56'1212.3
2015-Jan-24 05:32N 43°50' W 006°13'  
2015-Jan-20 09:32N 39°10' W 009°53'6 6.5
2015-Jan-20 08:33N 39°03' W 009°52'7 6.8
2015-Jan-20 07:29N 38°56' W 009°52'7 7.3
2015-Jan-20 06:33N 38°49' W 009°51'8 7.8
2015-Jan-20 05:32N 38°41' W 009°50'9 8.7
2015-Jan-20 04:31N 38°33' W 009°48'10 9.9
2015-Jan-20 03:31N 38°23' W 009°45'9 9.4
2015-Jan-20 02:32N 38°14' W 009°42'9 9.2
2015-Jan-20 01:30N 38°05' W 009°39'8 8.6
2015-Jan-20 00:33N 37°57' W 009°36'8 8.4
2015-Jan-19 23:33N 37°49' W 009°33'8 8.1
2015-Jan-19 22:33N 37°41' W 009°32'7 7.5
2015-Jan-19 21:33N 37°34' W 009°30'7 7.1
2015-Jan-19 20:33N 37°27' W 009°28'55 5.3
2015-Jan-19 10:12N 36°41' W 008°50'22 7.0
2015-Jan-19 07:06N 36°36' W 008°23'  
Track history (hours):
 
Tides and Currents Weather Stations Pressure Air Temp Water Temp Dewpoint Dewpoint Depression Visibility Wind Speed Wind Dir Waves Ship Positions

Levante

Last reported at 2015-Jan-27 04:30 UTC. Time now 2015-Jan-27 19:00 UTC.
Position N 43°20' W 003°02'.

Length 188.3 m; beam 28 m; draft 10.1 m.

Type: Ship. MMSI: 215440000.

Date/timePositionNaut miles runAvg speedWind from/ knotsBaromVisibWave heightAir tempDewpointWater temp
2015-Jan-27 04:30N 43°20' W 003°02'0 0.0
2015-Jan-27 03:30N 43°20' W 003°02'0 0.0
2015-Jan-27 02:34N 43°20' W 003°02'0 0.0
2015-Jan-27 01:34N 43°20' W 003°02'0 0.0
2015-Jan-27 00:30N 43°20' W 003°02'0 0.0
2015-Jan-26 23:30N 43°20' W 003°02'0 0.0
2015-Jan-26 22:30N 43°20' W 003°02'0 0.0
2015-Jan-26 21:30N 43°20' W 003°02'0 0.0
2015-Jan-26 20:30N 43°20' W 003°02'0 0.0
2015-Jan-26 19:30N 43°20' W 003°02'0 0.0
2015-Jan-26 18:34N 43°20' W 003°02'0 0.0
2015-Jan-26 17:34N 43°20' W 003°02'0 0.0
2015-Jan-26 16:30N 43°20' W 003°02'0 0.0
2015-Jan-26 15:30N 43°20' W 003°02'0 0.0
2015-Jan-26 14:30N 43°20' W 003°02'0 0.0
2015-Jan-26 13:30N 43°20' W 003°02'0 0.0
2015-Jan-26 12:30N 43°20' W 003°02'93 1.8
2015-Jan-24 09:30N 43°44' W 005°06'1212.4
2015-Jan-24 08:31N 43°45' W 005°23'1212.1
2015-Jan-24 07:33N 43°47' W 005°39'1212.1
2015-Jan-24 06:32N 43°48' W 005°56'1212.3
2015-Jan-24 05:32N 43°50' W 006°13'  
2015-Jan-20 09:32N 39°10' W 009°53'6 6.5
2015-Jan-20 08:33N 39°03' W 009°52'7 6.8
2015-Jan-20 07:29N 38°56' W 009°52'7 7.3
2015-Jan-20 06:33N 38°49' W 009°51'8 7.8
2015-Jan-20 05:32N 38°41' W 009°50'9 8.7
2015-Jan-20 04:31N 38°33' W 009°48'10 9.9
2015-Jan-20 03:31N 38°23' W 009°45'9 9.4
2015-Jan-20 02:32N 38°14' W 009°42'9 9.2
2015-Jan-20 01:30N 38°05' W 009°39'8 8.6
2015-Jan-20 00:33N 37°57' W 009°36'8 8.4
2015-Jan-19 23:33N 37°49' W 009°33'8 8.1
2015-Jan-19 22:33N 37°41' W 009°32'7 7.5
2015-Jan-19 21:33N 37°34' W 009°30'7 7.1
2015-Jan-19 20:33N 37°27' W 009°28'55 5.3
2015-Jan-19 10:12N 36°41' W 008°50'22 7.0
2015-Jan-19 07:06N 36°36' W 008°23'  

Dump ship's entire track history